createdAt,value
2019-01-21T00:01:08.535Z,-1.20
2019-01-21T00:03:37.135Z,-1.20
2019-01-21T00:06:05.658Z,-1.20
2019-01-21T00:08:34.133Z,-1.20
2019-01-21T00:11:02.582Z,-1.20
2019-01-21T00:13:31.026Z,-1.20
2019-01-21T00:15:59.503Z,-1.30
2019-01-21T00:18:27.940Z,-1.30
2019-01-21T00:20:56.411Z,-1.30
2019-01-21T00:23:25.209Z,-1.40
2019-01-21T00:25:53.650Z,-1.40
2019-01-21T00:28:22.111Z,-1.50
2019-01-21T00:30:50.550Z,-1.60
2019-01-21T00:33:19.022Z,-1.60
2019-01-21T00:35:47.650Z,-1.70
2019-01-21T00:38:16.103Z,-1.70
2019-01-21T00:40:44.563Z,-1.70
2019-01-21T00:43:32.342Z,-1.70
2019-01-21T00:46:20.225Z,-1.80
2019-01-21T00:48:48.744Z,-1.80
2019-01-21T00:51:17.211Z,-1.90
2019-01-21T00:53:45.734Z,-1.90
2019-01-21T00:56:14.184Z,-1.90
2019-01-21T00:58:42.650Z,-1.90
2019-01-21T01:01:11.263Z,-1.90
2019-01-21T01:03:39.711Z,-1.90
2019-01-21T01:06:08.175Z,-1.90
2019-01-21T01:08:55.958Z,-1.90
2019-01-21T01:11:24.421Z,-1.90
2019-01-21T01:13:52.869Z,-2.00
2019-01-21T01:16:21.327Z,-2.00
2019-01-21T01:18:49.814Z,-2.00
2019-01-21T01:21:18.256Z,-2.00
2019-01-21T01:23:46.719Z,-2.00
2019-01-21T01:26:15.169Z,-2.10
2019-01-21T01:28:43.688Z,-2.10
2019-01-21T01:31:12.291Z,-2.20
2019-01-21T01:33:40.739Z,-2.20
2019-01-21T01:36:09.287Z,-2.20
2019-01-21T01:38:57.148Z,-2.30
2019-01-21T01:41:25.619Z,-2.40
2019-01-21T01:43:54.138Z,-2.40
2019-01-21T01:46:22.650Z,-2.40
2019-01-21T01:48:51.193Z,-2.50
2019-01-21T01:51:20.901Z,-2.50
2019-01-21T01:53:49.728Z,-2.60
2019-01-21T01:56:18.802Z,-2.60
2019-01-21T01:58:47.300Z,-2.60
2019-01-21T02:01:15.832Z,-2.60
2019-01-21T02:03:44.560Z,-2.60
2019-01-21T02:06:13.159Z,-2.60
2019-01-21T02:08:41.699Z,-2.70
2019-01-21T02:11:10.274Z,-2.70
2019-01-21T02:13:38.802Z,-2.80
2019-01-21T02:16:07.390Z,-2.80
2019-01-21T02:18:35.854Z,-2.90
2019-01-21T02:21:05.911Z,-2.90
2019-01-21T02:23:55.310Z,-2.90
2019-01-21T02:26:26.931Z,-2.90
2019-01-21T02:29:01.270Z,-2.90
2019-01-21T02:31:50.987Z,-2.90
2019-01-21T02:34:28.796Z,-2.90
2019-01-21T02:37:05.910Z,-3.00
2019-01-21T02:40:08.010Z,-3.00
2019-01-21T02:42:57.602Z,-3.00
2019-01-21T02:45:56.804Z,-3.10
2019-01-21T02:48:49.068Z,-3.10
2019-01-21T02:51:37.475Z,-3.20
2019-01-21T02:54:11.638Z,-3.20
2019-01-21T02:56:52.716Z,-3.30
2019-01-21T02:59:36.074Z,-3.30
2019-01-21T03:02:19.591Z,-3.40
2019-01-21T03:05:12.599Z,-3.40
2019-01-21T03:07:52.931Z,-3.40
2019-01-21T03:10:33.567Z,-3.50
2019-01-21T03:13:22.056Z,-3.50
2019-01-21T03:16:29.511Z,-3.50
2019-01-21T03:19:06.735Z,-3.60
2019-01-21T03:21:58.314Z,-3.60
2019-01-21T03:24:45.057Z,-3.60
2019-01-21T03:27:40.541Z,-3.60
2019-01-21T03:30:34.648Z,-3.70
2019-01-21T03:33:22.882Z,-3.70
2019-01-21T03:35:57.348Z,-3.70
2019-01-21T03:38:38.006Z,-3.70
2019-01-21T03:41:27.818Z,-3.70
2019-01-21T03:44:22.921Z,-3.70
2019-01-21T03:47:00.395Z,-3.70
2019-01-21T03:49:34.887Z,-3.80
2019-01-21T03:52:41.531Z,-3.80
2019-01-21T03:55:13.275Z,-3.80
2019-01-21T03:57:56.914Z,-3.80
2019-01-21T04:00:34.559Z,-3.90
2019-01-21T04:03:15.332Z,-3.90
2019-01-21T04:06:04.725Z,-3.90
2019-01-21T04:08:51.351Z,-3.90
2019-01-21T04:11:59.143Z,-3.90
2019-01-21T04:14:59.039Z,-4.00
2019-01-21T04:17:51.338Z,-4.00
2019-01-21T04:20:43.500Z,-4.00
2019-01-21T04:23:34.684Z,-4.00
2019-01-21T04:26:06.323Z,-4.10
2019-01-21T04:28:46.579Z,-4.10
2019-01-21T04:31:30.143Z,-4.10
2019-01-21T04:34:04.400Z,-4.10
2019-01-21T04:36:51.294Z,-4.10
2019-01-21T04:39:31.170Z,-4.10
2019-01-21T04:42:24.796Z,-4.10
2019-01-21T04:45:08.162Z,-4.10
2019-01-21T04:48:07.850Z,-4.10
2019-01-21T04:51:15.109Z,-4.20
2019-01-21T04:54:04.626Z,-4.20
2019-01-21T04:56:51.328Z,-4.20
2019-01-21T04:59:35.698Z,-4.20
2019-01-21T05:02:24.004Z,-4.20
2019-01-21T05:05:28.553Z,-4.20
2019-01-21T05:08:16.714Z,-4.30
2019-01-21T05:10:51.116Z,-4.40
2019-01-21T05:13:42.345Z,-4.40
2019-01-21T05:16:13.882Z,-4.40
2019-01-21T05:19:04.806Z,-4.50
2019-01-21T05:21:51.293Z,-4.50
2019-01-21T05:24:41.312Z,-4.60
2019-01-21T05:27:25.051Z,-4.60
2019-01-21T05:29:57.818Z,-4.60
2019-01-21T05:32:50.060Z,-4.60
2019-01-21T05:35:30.714Z,-4.60
2019-01-21T05:38:05.422Z,-4.60
2019-01-21T05:40:53.605Z,-4.70
2019-01-21T05:43:36.910Z,-4.70
2019-01-21T05:50:02.234Z,-4.80
2019-01-21T05:52:50.378Z,-4.70
2019-01-21T05:55:24.494Z,-4.70
2019-01-21T05:58:19.055Z,-4.70
2019-01-21T06:00:50.677Z,-4.70
2019-01-21T06:03:46.679Z,-4.70
2019-01-21T06:06:36.327Z,-4.70
2019-01-21T06:09:19.918Z,-4.80
2019-01-21T06:12:08.219Z,-4.80
2019-01-21T06:14:51.636Z,-4.80
2019-01-21T06:17:29.072Z,-4.80
2019-01-21T06:20:09.555Z,-4.90
2019-01-21T06:22:58.896Z,-5.00
2019-01-21T06:25:47.071Z,-5.00
2019-01-21T06:28:33.685Z,-4.60
2019-01-21T06:31:25.066Z,-4.40
2019-01-21T06:34:14.418Z,-4.50
2019-01-21T06:36:48.899Z,-4.80
2019-01-21T06:39:38.649Z,-4.80
2019-01-21T06:42:25.019Z,-4.80
2019-01-21T06:44:59.310Z,-4.80
2019-01-21T06:47:55.051Z,-4.80
2019-01-21T06:50:32.650Z,-5.00
2019-01-21T06:53:27.798Z,-5.00
2019-01-21T06:56:14.375Z,-5.10
2019-01-21T06:59:03.679Z,-5.20
2019-01-21T07:01:44.096Z,-5.30
2019-01-21T07:04:31.726Z,-5.10
2019-01-21T07:07:08.958Z,-5.20
2019-01-21T07:10:01.723Z,-5.00
2019-01-21T07:12:35.914Z,-4.80
2019-01-21T07:15:10.208Z,-5.10
2019-01-21T07:17:47.604Z,-5.20
2019-01-21T07:20:39.731Z,-5.30
2019-01-21T07:23:22.970Z,-5.10
2019-01-21T07:25:56.987Z,-5.20
2019-01-21T07:28:58.281Z,-5.30
2019-01-21T07:31:44.181Z,-5.10
2019-01-21T07:34:32.219Z,-5.20
2019-01-21T07:37:18.760Z,-5.20
2019-01-21T07:39:56.100Z,-5.20
2019-01-21T07:42:42.564Z,-5.10
2019-01-21T07:45:25.808Z,-5.10
2019-01-21T07:48:30.352Z,-5.00
2019-01-21T07:51:04.412Z,-5.00
2019-01-21T07:53:57.010Z,-5.00
2019-01-21T07:56:46.345Z,-5.00
2019-01-21T07:59:23.815Z,-4.90
2019-01-21T08:01:55.359Z,-4.70
2019-01-21T08:04:58.658Z,-4.70
2019-01-21T08:07:33.139Z,-4.50
2019-01-21T08:10:25.891Z,-4.60
2019-01-21T08:13:00.647Z,-4.40
2019-01-21T08:15:51.106Z,-4.20
2019-01-21T08:18:40.594Z,-3.90
2019-01-21T08:21:12.106Z,-3.70
2019-01-21T08:24:04.120Z,-3.50
2019-01-21T08:26:41.591Z,-3.50
2019-01-21T08:29:15.728Z,-3.70
2019-01-21T08:32:02.263Z,-3.70
2019-01-21T08:34:42.625Z,-3.60
2019-01-21T08:37:26.175Z,-3.50
2019-01-21T08:40:00.902Z,-3.50
2019-01-21T08:42:53.754Z,-3.40
2019-01-21T08:45:50.507Z,-3.30
2019-01-21T08:48:30.586Z,-3.00
2019-01-21T08:51:17.121Z,-2.90
2019-01-21T08:53:51.438Z,-3.00
2019-01-21T08:56:32.019Z,-3.00
2019-01-21T08:59:03.608Z,-2.90
2019-01-21T09:02:12.415Z,-2.80
2019-01-21T09:05:04.644Z,-2.80
2019-01-21T09:08:08.253Z,-2.60
2019-01-21T09:10:56.583Z,-2.40
2019-01-21T09:13:28.123Z,-2.10
2019-01-21T09:15:59.642Z,-1.70
2019-01-21T09:18:39.867Z,-1.70
2019-01-21T09:21:17.191Z,-1.60
2019-01-21T09:24:05.402Z,-1.80
2019-01-21T09:26:51.474Z,-2.00
2019-01-21T09:29:40.859Z,-2.00
2019-01-21T09:32:39.399Z,-2.10
2019-01-21T09:35:10.947Z,-2.20
2019-01-21T09:37:59.115Z,-1.70
2019-01-21T09:40:36.435Z,-1.80
2019-01-21T09:43:07.971Z,-1.50
2019-01-21T09:45:54.555Z,-0.90
2019-01-21T09:48:21.931Z,-0.80
2019-01-21T09:51:11.258Z,-0.80
2019-01-21T09:53:40.037Z,-0.70
2019-01-21T09:56:08.650Z,-0.20
2019-01-21T09:58:38.032Z,0.10
2019-01-21T10:01:08.012Z,0.70
2019-01-21T10:06:06.902Z,1.80
2019-01-21T10:08:43.966Z,2.40
2019-01-21T10:11:36.735Z,2.90
2019-01-21T10:14:20.440Z,3.20
2019-01-21T10:17:03.803Z,3.20
2019-01-21T10:19:53.214Z,3.30
2019-01-21T10:23:02.236Z,3.20
2019-01-21T10:25:58.085Z,3.50
2019-01-21T10:28:44.716Z,3.80
2019-01-21T10:31:22.329Z,4.30
2019-01-21T10:33:56.298Z,4.30
2019-01-21T10:36:33.547Z,4.60
2019-01-21T10:39:07.936Z,4.80
2019-01-21T10:41:51.071Z,4.00
2019-01-21T10:44:31.279Z,4.40
2019-01-21T10:47:14.682Z,4.30
2019-01-21T10:50:03.992Z,4.50
2019-01-21T10:53:02.455Z,3.60
2019-01-21T10:55:34.106Z,3.60
2019-01-21T10:58:24.869Z,3.40
2019-01-21T11:01:14.264Z,3.60
2019-01-21T11:03:51.883Z,3.80
2019-01-21T11:06:40.231Z,3.60
2019-01-21T11:09:37.206Z,3.50
2019-01-21T11:12:39.268Z,3.50
2019-01-21T11:15:28.954Z,3.90
2019-01-21T11:18:06.301Z,4.70
2019-01-21T11:20:55.566Z,4.80
2019-01-21T11:23:29.551Z,5.20
2019-01-21T11:26:23.767Z,5.20
2019-01-21T11:29:06.927Z,5.20
2019-01-21T11:31:50.518Z,5.60
2019-01-21T11:34:24.539Z,5.60
2019-01-21T11:36:56.110Z,5.90
2019-01-21T11:39:36.926Z,5.80
2019-01-21T11:42:11.251Z,5.60
2019-01-21T11:44:57.238Z,5.20
2019-01-21T11:47:31.533Z,5.20
2019-01-21T11:50:14.886Z,5.30
2019-01-21T11:52:49.356Z,5.00
2019-01-21T11:56:12.895Z,5.00
2019-01-21T11:59:00.894Z,5.30
2019-01-21T12:01:52.871Z,5.50
2019-01-21T12:04:45.246Z,5.60
2019-01-21T12:07:31.974Z,5.60
2019-01-21T12:10:15.514Z,5.70
2019-01-21T12:13:01.976Z,5.80
2019-01-21T12:15:48.644Z,5.80
2019-01-21T12:18:20.219Z,5.10
2019-01-21T12:21:12.634Z,5.40
2019-01-21T12:23:50.419Z,5.10
2019-01-21T12:26:34.122Z,4.20
2019-01-21T12:29:23.442Z,3.60
2019-01-21T12:32:20.769Z,3.80
2019-01-21T12:35:01.203Z,3.90
2019-01-21T12:37:32.754Z,3.80
2019-01-21T12:40:22.494Z,4.10
2019-01-21T12:42:56.694Z,4.50
2019-01-21T12:45:30.927Z,4.80
2019-01-21T12:48:07.966Z,4.90
2019-01-21T12:51:13.068Z,5.00
2019-01-21T12:53:47.288Z,5.10
2019-01-21T12:56:36.915Z,4.80
2019-01-21T12:59:26.254Z,4.90
2019-01-21T13:02:03.506Z,4.90
2019-01-21T13:04:37.980Z,4.80
2019-01-21T13:07:27.432Z,4.50
2019-01-21T13:10:15.576Z,4.30
2019-01-21T13:13:20.417Z,4.30
2019-01-21T13:15:54.855Z,4.20
2019-01-21T13:18:35.668Z,3.80
2019-01-21T13:21:26.130Z,3.80
2019-01-21T13:24:03.431Z,3.60
2019-01-21T13:26:34.985Z,3.80
2019-01-21T13:29:24.375Z,3.90
2019-01-21T13:32:14.246Z,3.90
2019-01-21T13:35:10.171Z,4.30
2019-01-21T13:38:09.920Z,4.50
2019-01-21T13:41:14.914Z,4.00
2019-01-21T13:44:22.518Z,3.60
2019-01-21T13:47:16.419Z,3.50
2019-01-21T13:49:59.944Z,3.50
2019-01-21T13:52:37.097Z,3.10
2019-01-21T13:55:35.948Z,2.60
2019-01-21T13:58:27.394Z,2.40
2019-01-21T14:01:20.005Z,2.40
2019-01-21T14:04:11.330Z,2.20
2019-01-21T14:06:45.699Z,2.40
2019-01-21T14:09:35.503Z,2.40
2019-01-21T14:12:15.754Z,2.50
2019-01-21T14:15:16.018Z,2.70
2019-01-21T14:18:06.291Z,2.80
2019-01-21T14:20:46.991Z,2.00
2019-01-21T14:23:52.183Z,2.00
2019-01-21T14:26:46.446Z,1.70
2019-01-21T14:29:29.900Z,1.30
2019-01-21T14:32:27.054Z,0.90
2019-01-21T14:34:58.601Z,1.00
2019-01-21T14:37:42.011Z,0.90
2019-01-21T14:40:16.254Z,0.50
2019-01-21T14:43:18.688Z,0.50
2019-01-21T14:46:08.151Z,0.50
2019-01-21T14:49:15.076Z,0.50
2019-01-21T14:52:15.707Z,0.40
2019-01-21T14:54:47.316Z,0.00
2019-01-21T14:57:56.101Z,0.10
2019-01-21T15:00:30.391Z,0.10
2019-01-21T15:03:21.210Z,0.00
2019-01-21T15:05:55.683Z,-0.10
2019-01-21T15:08:27.286Z,-0.10
2019-01-21T15:11:27.303Z,-0.20
2019-01-21T15:14:07.460Z,-0.20
2019-01-21T15:16:39.094Z,-0.10
2019-01-21T15:19:10.655Z,-0.20
2019-01-21T15:21:45.262Z,-0.10
2019-01-21T15:24:34.815Z,0.00
2019-01-21T15:27:32.776Z,0.00
2019-01-21T15:30:10.244Z,0.00
2019-01-21T15:32:41.892Z,-0.30
2019-01-21T15:35:27.935Z,-0.40
2019-01-21T15:37:59.515Z,-0.40
2019-01-21T15:40:55.679Z,-0.40
2019-01-21T15:43:29.926Z,-0.30
2019-01-21T15:46:16.593Z,-0.30
2019-01-21T15:48:51.118Z,-0.30
2019-01-21T15:51:45.279Z,-0.30
2019-01-21T15:54:25.481Z,-0.30
2019-01-21T15:57:02.978Z,-0.30
2019-01-21T15:59:46.682Z,-0.30
2019-01-21T16:02:20.728Z,-0.30
2019-01-21T16:04:57.848Z,-0.30
2019-01-21T16:07:29.451Z,-0.30
2019-01-21T16:10:23.603Z,-0.20
2019-01-21T16:13:04.101Z,-0.20
2019-01-21T16:15:53.480Z,-0.20
2019-01-21T16:18:36.757Z,-0.10
2019-01-21T16:21:13.802Z,-0.10
2019-01-21T16:24:02.215Z,-0.10
2019-01-21T16:26:33.842Z,-0.10
2019-01-21T16:29:07.986Z,-0.10
2019-01-21T16:31:37.174Z,-0.10
2019-01-21T16:34:29.591Z,-0.10
2019-01-21T16:37:13.157Z,-0.10
2019-01-21T16:40:02.858Z,-0.10
2019-01-21T16:42:30.230Z,-0.10
2019-01-21T16:44:58.686Z,-0.20
2019-01-21T16:47:27.239Z,-0.20
2019-01-21T16:49:55.781Z,-0.30
2019-01-21T16:52:24.269Z,-0.30
2019-01-21T16:54:52.870Z,-0.30
2019-01-21T16:57:21.421Z,-0.30
2019-01-21T16:59:49.861Z,-0.40
2019-01-21T17:02:18.338Z,-0.40
2019-01-21T17:04:46.866Z,-0.50
2019-01-21T17:07:15.312Z,-0.50
2019-01-21T17:09:43.810Z,-0.60
2019-01-21T17:12:12.276Z,-0.70
2019-01-21T17:14:40.805Z,-0.80
2019-01-21T17:19:39.454Z,-1.00
2019-01-21T17:22:07.938Z,-1.00
2019-01-21T17:24:36.380Z,-1.20
2019-01-21T17:27:05.020Z,-1.30
2019-01-21T17:29:33.508Z,-1.30
2019-01-21T17:32:02.014Z,-1.30
2019-01-21T17:34:30.465Z,-1.30
2019-01-21T17:36:59.111Z,-1.40
2019-01-21T17:39:27.573Z,-1.30
2019-01-21T17:41:56.088Z,-1.40
2019-01-21T17:44:24.556Z,-1.40
2019-01-21T17:46:53.015Z,-1.60
2019-01-21T17:49:21.600Z,-1.70
2019-01-21T17:51:50.131Z,-1.80
2019-01-21T17:54:18.580Z,-1.80
2019-01-21T17:56:47.024Z,-1.90
2019-01-21T17:59:15.482Z,-2.00
2019-01-21T18:01:43.936Z,-2.10
2019-01-21T18:04:31.743Z,-2.20
2019-01-21T18:07:00.182Z,-2.20
2019-01-21T18:09:28.674Z,-2.30
2019-01-21T18:11:57.211Z,-2.30
2019-01-21T18:14:45.297Z,-2.40
2019-01-21T18:17:13.764Z,-2.30
2019-01-21T18:19:42.213Z,-2.30
2019-01-21T18:22:10.734Z,-2.30
2019-01-21T18:24:39.207Z,-2.20
2019-01-21T18:27:07.645Z,-2.10
2019-01-21T18:29:36.110Z,-2.00
2019-01-21T18:32:04.718Z,-1.90
2019-01-21T18:34:52.562Z,-2.00
2019-01-21T18:37:21.042Z,-2.20
2019-01-21T18:39:56.250Z,-2.20
2019-01-21T18:42:24.724Z,-2.20
2019-01-21T18:45:14.055Z,-2.30
2019-01-21T18:47:42.588Z,-2.30
2019-01-21T18:50:11.783Z,-2.30
2019-01-21T18:52:40.398Z,-2.20
2019-01-21T18:55:11.947Z,-2.10
2019-01-21T18:57:40.402Z,-1.90
2019-01-21T19:00:12.056Z,-1.90
2019-01-21T19:02:40.592Z,-1.80
2019-01-21T19:05:10.101Z,-1.70
2019-01-21T19:07:38.594Z,-1.70
2019-01-21T19:10:10.095Z,-1.90
2019-01-21T19:12:38.551Z,-2.00
2019-01-21T19:15:15.892Z,-2.10
2019-01-21T19:17:44.454Z,-2.10
2019-01-21T19:20:15.187Z,-2.10
2019-01-21T19:22:43.798Z,-2.00
2019-01-21T19:25:12.754Z,-1.90
2019-01-21T19:27:41.743Z,-1.80
2019-01-21T19:30:16.293Z,-1.80
2019-01-21T19:32:44.821Z,-2.10
2019-01-21T19:35:16.366Z,-2.30
2019-01-21T19:37:44.849Z,-2.30
2019-01-21T19:40:16.326Z,-2.30
2019-01-21T19:42:47.698Z,-2.40
2019-01-21T19:45:16.598Z,-2.60
2019-01-21T19:47:45.220Z,-2.60
2019-01-21T19:50:17.545Z,-2.60
2019-01-21T19:52:47.003Z,-2.70
2019-01-21T19:55:33.818Z,-2.70
2019-01-21T19:58:02.387Z,-2.70
2019-01-21T20:00:31.006Z,-2.80
2019-01-21T20:03:09.303Z,-2.80
2019-01-21T20:05:38.649Z,-2.80
2019-01-21T20:08:07.167Z,-2.80
2019-01-21T20:10:35.764Z,-2.80
2019-01-21T20:13:06.250Z,-2.90
2019-01-21T20:15:34.883Z,-3.00
2019-01-21T20:18:03.679Z,-3.00
2019-01-21T20:20:38.640Z,-3.00
2019-01-21T20:23:07.375Z,-3.00
2019-01-21T20:25:35.813Z,-3.10
2019-01-21T20:28:04.787Z,-3.20
2019-01-21T20:30:33.368Z,-3.20
2019-01-21T20:33:01.879Z,-3.10
2019-01-21T20:35:30.350Z,-3.10
2019-01-21T20:37:58.876Z,-3.10
2019-01-21T20:40:28.958Z,-3.00
2019-01-21T20:42:57.430Z,-3.00
2019-01-21T20:45:25.938Z,-3.10
2019-01-21T20:47:54.470Z,-3.10
2019-01-21T20:50:29.107Z,-3.10
2019-01-21T20:52:57.622Z,-3.20
2019-01-21T20:55:26.408Z,-3.20
2019-01-21T20:57:55.010Z,-3.20
2019-01-21T21:00:28.558Z,-3.20
2019-01-21T21:02:57.450Z,-3.20
2019-01-21T21:05:26.063Z,-3.20
2019-01-21T21:07:54.675Z,-3.10
2019-01-21T21:10:28.907Z,-3.00
2019-01-21T21:12:57.376Z,-3.00
2019-01-21T21:15:49.464Z,-3.00
2019-01-21T21:18:17.937Z,-3.20
2019-01-21T21:20:46.450Z,-3.40
2019-01-21T21:23:14.895Z,-3.40
2019-01-21T21:26:02.707Z,-3.40
2019-01-21T21:28:31.419Z,-3.30
2019-01-21T21:30:59.857Z,-3.30
2019-01-21T21:33:28.397Z,-3.30
2019-01-21T21:35:56.917Z,-3.30
2019-01-21T21:38:45.143Z,-3.30
2019-01-21T21:41:13.655Z,-3.30
2019-01-21T21:43:42.103Z,-3.40
2019-01-21T21:46:10.643Z,-3.40
2019-01-21T21:48:39.091Z,-3.40
2019-01-21T21:51:07.607Z,-3.40
2019-01-21T21:53:36.077Z,-3.40
2019-01-21T21:56:04.763Z,-3.50
2019-01-21T21:58:33.283Z,-3.40
2019-01-21T22:01:01.818Z,-3.40
2019-01-21T22:03:31.438Z,-3.40
2019-01-21T22:06:00.354Z,-3.40
2019-01-21T22:08:28.902Z,-3.40
2019-01-21T22:10:57.431Z,-3.40
2019-01-21T22:13:25.946Z,-3.40
2019-01-21T22:15:54.496Z,-3.40
2019-01-21T22:18:23.014Z,-3.40
2019-01-21T22:20:51.558Z,-3.60
2019-01-21T22:23:20.105Z,-3.70
2019-01-21T22:25:48.635Z,-3.60
2019-01-21T22:28:17.255Z,-3.60
2019-01-21T22:30:45.867Z,-3.60
2019-01-21T22:33:14.691Z,-3.50
2019-01-21T22:35:43.208Z,-3.50
2019-01-21T22:38:31.093Z,-3.60
2019-01-21T22:40:59.681Z,-3.70
2019-01-21T22:43:28.410Z,-3.70
2019-01-21T22:45:57.035Z,-3.70
2019-01-21T22:48:25.622Z,-3.70
2019-01-21T22:50:54.219Z,-3.70
2019-01-21T22:53:22.758Z,-3.70
2019-01-21T22:55:51.582Z,-3.80
2019-01-21T22:58:20.103Z,-4.00
2019-01-21T23:00:56.113Z,-4.00
2019-01-21T23:03:24.642Z,-4.20
2019-01-21T23:05:53.165Z,-4.30
2019-01-21T23:08:21.916Z,-4.40
2019-01-21T23:10:50.498Z,-4.50
2019-01-21T23:13:19.102Z,-4.50
2019-01-21T23:15:47.644Z,-4.50
2019-01-21T23:18:20.676Z,-4.50
2019-01-21T23:20:49.598Z,-4.50
2019-01-21T23:23:18.135Z,-4.50
2019-01-21T23:25:46.664Z,-4.60
2019-01-21T23:28:15.248Z,-4.60
2019-01-21T23:30:43.855Z,-4.70
2019-01-21T23:33:12.453Z,-4.60
2019-01-21T23:35:40.968Z,-4.70
2019-01-21T23:38:09.897Z,-4.80
2019-01-21T23:40:38.526Z,-4.80
2019-01-21T23:43:07.050Z,-4.90
2019-01-21T23:45:35.604Z,-4.90
2019-01-21T23:48:04.559Z,-5.00
2019-01-21T23:50:33.160Z,-5.00
2019-01-21T23:53:01.699Z,-5.20
2019-01-21T23:55:30.212Z,-5.20
2019-01-21T23:57:59.099Z,-5.20
